createdAt,value
2018-01-04T00:00:00.235Z,7.95
2018-01-04T00:01:10.219Z,7.88
2018-01-04T00:02:19.932Z,7.87
2018-01-04T00:03:29.659Z,7.87
2018-01-04T00:04:39.385Z,7.9
2018-01-04T00:05:49.347Z,7.84
2018-01-04T00:06:59.051Z,7.8
2018-01-04T00:08:09.060Z,7.85
2018-01-04T00:09:19.039Z,7.8
2018-01-04T00:12:10.805Z,7.64
2018-01-04T00:13:20.778Z,7.55
2018-01-04T00:15:02.413Z,7.55
2018-01-04T00:16:12.393Z,7.55
2018-01-04T00:17:22.351Z,7.48
2018-01-04T00:18:32.330Z,7.51
2018-01-04T00:19:42.316Z,7.4
2018-01-04T00:20:52.285Z,7.39
2018-01-04T00:22:02.281Z,7.36
2018-01-04T00:23:12.269Z,7.32
2018-01-04T00:24:21.973Z,7.32
2018-01-04T00:25:31.948Z,7.32
2018-01-04T00:30:15.573Z,7.31
2018-01-04T00:31:25.614Z,7.28
2018-01-04T00:32:35.614Z,7.32
2018-01-04T00:33:45.576Z,7.33
2018-01-04T00:34:55.557Z,7.44
2018-01-04T00:36:05.580Z,7.36
2018-01-04T00:37:15.270Z,7.41
2018-01-04T00:39:07.079Z,7.36
2018-01-04T00:40:19.868Z,7.33
2018-01-04T00:42:01.674Z,7.41
2018-01-04T00:43:14.683Z,7.37
2018-01-04T00:45:28.317Z,7.36
2018-01-04T00:49:01.639Z,7.19
2018-01-04T00:50:11.611Z,7.19
2018-01-04T00:51:21.601Z,7.18
2018-01-04T00:52:31.545Z,7.15
2018-01-04T00:53:41.517Z,7.13
2018-01-04T00:54:51.470Z,7.13
2018-01-04T00:56:01.439Z,7.15
2018-01-04T00:57:11.394Z,7.14
2018-01-04T00:58:21.376Z,7.07
2018-01-04T00:59:30.845Z,7.03
2018-01-04T01:00:40.597Z,7.07
2018-01-04T01:01:50.306Z,7
2018-01-04T01:03:00.011Z,7.04
2018-01-04T01:04:09.737Z,7.01
2018-01-04T01:05:19.708Z,6.97
2018-01-04T01:06:29.435Z,7
2018-01-04T01:07:39.411Z,7
2018-01-04T01:08:49.367Z,6.93
2018-01-04T01:09:59.335Z,6.92
2018-01-04T01:11:09.326Z,6.97
2018-01-04T01:12:19.037Z,6.97
2018-01-04T01:13:28.479Z,6.95
2018-01-04T01:14:38.205Z,6.95
2018-01-04T01:15:48.179Z,6.93
2018-01-04T01:16:58.157Z,6.87
2018-01-04T01:18:08.136Z,6.78
2018-01-04T01:19:18.176Z,6.86
2018-01-04T01:20:27.907Z,6.71
2018-01-04T01:21:37.358Z,6.65
2018-01-04T01:22:47.333Z,6.64
2018-01-04T01:23:56.785Z,6.56
2018-01-04T01:25:06.763Z,6.7
2018-01-04T01:26:16.743Z,6.54
2018-01-04T01:27:26.716Z,6.6
2018-01-04T01:28:36.727Z,6.6
2018-01-04T01:29:46.742Z,6.62
2018-01-04T01:30:56.707Z,6.59
2018-01-04T01:32:06.409Z,6.68
2018-01-04T01:33:16.427Z,6.74
2018-01-04T01:34:26.399Z,6.85
2018-01-04T01:35:36.110Z,6.86
2018-01-04T01:36:45.327Z,6.85
2018-01-04T01:37:55.042Z,6.86
2018-01-04T01:39:05.002Z,6.95
2018-01-04T01:40:14.963Z,7.03
2018-01-04T01:41:24.932Z,7.04
2018-01-04T01:42:34.640Z,7.13
2018-01-04T01:43:45.240Z,7.19
2018-01-04T01:46:37.069Z,7.23
2018-01-04T01:47:59.777Z,7.33
2018-01-04T01:49:09.493Z,7.36
2018-01-04T01:50:22.246Z,7.28
2018-01-04T01:51:31.685Z,7.33
2018-01-04T01:53:13.470Z,7.37
2018-01-04T01:54:22.660Z,7.39
2018-01-04T01:55:32.467Z,7.43
2018-01-04T01:56:42.177Z,7.36
2018-01-04T01:57:51.877Z,7.36
2018-01-04T01:59:01.788Z,7.36
2018-01-04T02:00:11.770Z,7.37
2018-01-04T02:01:21.744Z,7.31
2018-01-04T02:02:31.726Z,7.37
2018-01-04T02:04:13.274Z,7.31
2018-01-04T02:05:55.075Z,7.33
2018-01-04T02:07:05.030Z,7.36
2018-01-04T02:08:14.992Z,7.36
2018-01-04T02:09:24.956Z,7.33
2018-01-04T02:10:34.951Z,7.4
2018-01-04T02:11:44.658Z,7.4
2018-01-04T02:12:54.635Z,7.39
2018-01-04T02:14:04.348Z,7.44
2018-01-04T02:15:14.311Z,7.37
2018-01-04T02:16:24.014Z,7.33
2018-01-04T02:17:33.983Z,7.29
2018-01-04T02:18:43.700Z,7.36
2018-01-04T02:19:53.688Z,7.29
2018-01-04T02:21:03.643Z,7.31
2018-01-04T02:22:13.090Z,7.23
2018-01-04T02:23:22.538Z,7.11
2018-01-04T02:24:32.494Z,7.03
2018-01-04T02:25:42.462Z,7.08
2018-01-04T02:26:52.438Z,7.07
2018-01-04T02:28:02.412Z,6.97
2018-01-04T02:29:12.374Z,6.96
2018-01-04T02:30:22.101Z,6.95
2018-01-04T02:31:32.064Z,7.01
2018-01-04T02:32:41.528Z,6.97
2018-01-04T02:33:51.515Z,6.9
2018-01-04T02:35:01.235Z,6.86
2018-01-04T02:36:10.685Z,6.83
2018-01-04T02:37:20.385Z,6.83
2018-01-04T02:38:31.228Z,6.8
2018-01-04T02:39:40.929Z,6.72
2018-01-04T02:40:50.633Z,6.6
2018-01-04T02:42:00.336Z,6.57
2018-01-04T02:43:10.304Z,6.57
2018-01-04T02:44:20.013Z,6.56
2018-01-04T02:45:29.980Z,6.56
2018-01-04T02:46:39.991Z,6.57
2018-01-04T02:47:49.458Z,6.53
2018-01-04T02:48:59.174Z,6.53
2018-01-04T02:50:08.946Z,6.54
2018-01-04T02:51:18.917Z,6.59
2018-01-04T02:52:28.627Z,6.65
2018-01-04T02:53:38.587Z,6.65
2018-01-04T02:54:48.315Z,6.71
2018-01-04T02:55:58.290Z,6.62
2018-01-04T02:57:07.559Z,6.64
2018-01-04T02:58:17.674Z,6.72
2018-01-04T02:59:27.681Z,6.8
2018-01-04T03:01:09.597Z,6.75
2018-01-04T03:02:51.165Z,6.82
2018-01-04T03:04:32.799Z,6.93
2018-01-04T03:05:42.778Z,6.85
2018-01-04T03:06:52.557Z,6.9
2018-01-04T03:08:02.538Z,6.86
2018-01-04T03:09:12.242Z,6.87
2018-01-04T03:10:54.031Z,6.89
2018-01-04T03:12:03.736Z,6.9
2018-01-04T03:13:45.536Z,6.9
2018-01-04T03:14:55.510Z,7
2018-01-04T03:16:05.571Z,7
2018-01-04T03:17:15.582Z,6.96
2018-01-04T03:18:25.566Z,6.97
2018-01-04T03:19:35.537Z,7.01
2018-01-04T03:20:45.264Z,6.96
2018-01-04T03:21:54.735Z,7.04
2018-01-04T03:23:04.701Z,7.1
2018-01-04T03:24:14.664Z,7
2018-01-04T03:25:24.111Z,7.05
2018-01-04T03:26:33.821Z,7.04
2018-01-04T03:27:43.521Z,7.04
2018-01-04T03:28:53.486Z,7.01
2018-01-04T03:30:03.464Z,7.04
2018-01-04T03:31:13.200Z,7.04
2018-01-04T03:32:23.214Z,7.08
2018-01-04T03:33:32.927Z,7.07
2018-01-04T03:34:42.891Z,7.05
2018-01-04T03:35:52.586Z,7.11
2018-01-04T03:37:02.300Z,7.14
2018-01-04T03:38:12.259Z,7.14
2018-01-04T03:39:22.218Z,7.01
2018-01-04T03:40:31.401Z,7.04
2018-01-04T03:41:41.361Z,7.05
2018-01-04T03:42:50.798Z,7.05
2018-01-04T03:44:00.507Z,7.07
2018-01-04T03:45:10.467Z,7.14
2018-01-04T03:46:20.155Z,7.14
2018-01-04T03:47:30.100Z,7.19
2018-01-04T03:48:39.790Z,7.14
2018-01-04T03:49:49.521Z,7.1
2018-01-04T03:50:59.488Z,7.15
2018-01-04T03:52:09.207Z,6.97
2018-01-04T03:53:19.163Z,7.07
2018-01-04T03:54:28.869Z,7
2018-01-04T03:55:38.327Z,7.03
2018-01-04T03:56:48.301Z,7.03
2018-01-04T03:57:58.259Z,7.04
2018-01-04T03:59:08.218Z,7.03
2018-01-04T04:00:18.175Z,7.03
2018-01-04T04:01:28.147Z,7.04
2018-01-04T04:02:37.850Z,7.04
2018-01-04T04:03:47.819Z,7.15
2018-01-04T04:04:57.772Z,7.15
2018-01-04T04:06:07.742Z,7.07
2018-01-04T04:07:17.711Z,7.05
2018-01-04T04:08:27.159Z,7.05
2018-01-04T04:09:36.858Z,7.07
2018-01-04T04:10:46.815Z,7.15
2018-01-04T04:11:56.774Z,7.11
2018-01-04T04:13:06.503Z,7.21
2018-01-04T04:14:16.205Z,7.22
2018-01-04T04:15:25.901Z,7.19
2018-01-04T04:16:35.349Z,7.22
2018-01-04T04:17:45.070Z,7.22
2018-01-04T04:18:54.782Z,7.25
2018-01-04T04:20:04.774Z,7.26
2018-01-04T04:21:14.736Z,7.29
2018-01-04T04:22:24.702Z,7.36
2018-01-04T04:23:34.646Z,7.32
2018-01-04T04:24:44.589Z,7.32
2018-01-04T04:25:54.551Z,7.36
2018-01-04T04:27:04.507Z,7.37
2018-01-04T04:28:14.473Z,7.29
2018-01-04T04:29:24.176Z,7.29
2018-01-04T04:30:34.153Z,7.32
2018-01-04T04:31:43.854Z,7.29
2018-01-04T04:32:53.559Z,7.36
2018-01-04T04:34:03.515Z,7.32
2018-01-04T04:35:13.479Z,7.29
2018-01-04T04:36:23.453Z,7.18
2018-01-04T04:37:33.419Z,7.23
2018-01-04T04:38:43.403Z,7.21
2018-01-04T04:39:53.392Z,7.19
2018-01-04T04:41:03.137Z,7.13
2018-01-04T04:42:13.116Z,7.07
2018-01-04T04:43:23.105Z,7.01
2018-01-04T04:44:32.560Z,7
2018-01-04T04:45:42.542Z,7.03
2018-01-04T04:46:52.251Z,7.01
2018-01-04T04:48:01.960Z,6.93
2018-01-04T04:49:11.656Z,7
2018-01-04T04:53:06.594Z,6.93
2018-01-04T04:54:16.624Z,6.92
2018-01-04T04:55:26.591Z,6.9
2018-01-04T04:56:36.307Z,6.96
2018-01-04T04:57:46.303Z,6.96
2018-01-04T04:59:28.099Z,7.03
2018-01-04T05:00:37.819Z,6.95
2018-01-04T05:01:47.804Z,6.97
2018-01-04T05:03:29.353Z,6.96
2018-01-04T05:04:39.387Z,6.96
2018-01-04T05:05:49.343Z,6.95
2018-01-04T05:06:59.333Z,6.93
2018-01-04T05:08:09.292Z,7
2018-01-04T05:09:19.266Z,6.95
2018-01-04T05:10:28.711Z,6.92
2018-01-04T05:11:38.672Z,7
2018-01-04T05:12:48.370Z,6.9
2018-01-04T05:13:57.812Z,7.05
2018-01-04T05:15:07.523Z,7.03
2018-01-04T05:16:17.508Z,7.07
2018-01-04T05:17:27.527Z,6.97
2018-01-04T05:18:37.487Z,6.97
2018-01-04T05:19:47.474Z,7.1
2018-01-04T05:20:57.198Z,7.14
2018-01-04T05:22:07.163Z,7.08
2018-01-04T05:23:17.177Z,7.03
2018-01-04T05:24:26.896Z,7.14
2018-01-04T05:25:36.879Z,7.14
2018-01-04T05:26:46.591Z,7.15
2018-01-04T05:27:56.569Z,7.18
2018-01-04T05:29:06.552Z,7.13
2018-01-04T05:30:16.292Z,7.11
2018-01-04T05:31:26.054Z,7.14
2018-01-04T05:32:36.020Z,7.14
2018-01-04T05:33:45.466Z,7.07
2018-01-04T05:34:55.169Z,7.07
2018-01-04T05:36:04.615Z,7.05
2018-01-04T05:37:14.592Z,6.97
2018-01-04T05:38:56.388Z,6.97
2018-01-04T05:40:06.136Z,6.93
2018-01-04T05:41:15.323Z,6.87
2018-01-04T05:42:25.286Z,6.92
2018-01-04T05:43:35.003Z,6.86
2018-01-04T05:44:45.215Z,6.86
2018-01-04T05:45:55.441Z,6.86
2018-01-04T05:47:05.151Z,6.87
2018-01-04T05:48:15.118Z,6.82
2018-01-04T05:49:24.814Z,6.8
2018-01-04T05:50:34.788Z,6.72
2018-01-04T05:51:44.544Z,6.62
2018-01-04T05:52:54.260Z,6.67
2018-01-04T05:54:03.982Z,6.7
2018-01-04T05:55:13.712Z,6.85
2018-01-04T05:56:23.434Z,6.72
2018-01-04T05:57:33.419Z,6.85
2018-01-04T05:58:43.411Z,6.77
2018-01-04T05:59:53.169Z,6.8
2018-01-04T06:01:02.899Z,6.83
2018-01-04T06:02:12.601Z,6.9
2018-01-04T06:03:22.303Z,6.89
2018-01-04T06:04:32.281Z,6.85
2018-01-04T06:05:42.262Z,6.86
2018-01-04T06:06:52.246Z,6.9
2018-01-04T06:08:02.202Z,6.96
2018-01-04T06:09:12.159Z,6.93
2018-01-04T06:10:22.141Z,6.96
2018-01-04T06:11:32.129Z,6.97
2018-01-04T06:12:42.099Z,6.95
2018-01-04T06:13:52.095Z,7.01
2018-01-04T06:15:01.551Z,6.92
2018-01-04T06:16:11.555Z,6.92
2018-01-04T06:17:21.522Z,6.93
2018-01-04T06:18:50.434Z,6.95
2018-01-04T06:20:31.982Z,6.97
2018-01-04T06:22:13.786Z,7
2018-01-04T06:23:23.763Z,7.03
2018-01-04T06:24:33.490Z,7.07
2018-01-04T06:25:43.466Z,7.1
2018-01-04T06:26:53.457Z,7.04
2018-01-04T06:28:03.431Z,7.03
2018-01-04T06:29:13.394Z,7.05
2018-01-04T06:31:27.964Z,7.01
2018-01-04T06:32:37.939Z,6.96
2018-01-04T06:33:47.902Z,7
2018-01-04T06:34:57.860Z,6.97
2018-01-04T06:36:07.578Z,6.97
2018-01-04T06:37:17.585Z,6.95
2018-01-04T06:39:02.425Z,6.93
2018-01-04T06:41:53.975Z,6.97
2018-01-04T06:43:03.474Z,6.96
2018-01-04T06:44:13.442Z,6.92
2018-01-04T06:45:23.416Z,6.96
2018-01-04T06:47:05.236Z,6.86
2018-01-04T06:48:15.262Z,6.85
2018-01-04T06:49:24.978Z,6.82
2018-01-04T06:50:34.186Z,6.9
2018-01-04T06:51:44.146Z,6.8
2018-01-04T06:52:54.119Z,6.9
2018-01-04T06:54:04.115Z,6.82
2018-01-04T06:55:13.823Z,6.74
2018-01-04T06:56:23.804Z,6.86
2018-01-04T06:57:33.264Z,6.77
2018-01-04T06:58:43.238Z,6.87
2018-01-04T06:59:52.950Z,6.85
2018-01-04T07:01:02.935Z,6.85
2018-01-04T07:02:12.978Z,6.86
2018-01-04T07:03:22.962Z,6.87
2018-01-04T07:04:32.694Z,6.92
2018-01-04T07:05:42.682Z,6.9
2018-01-04T07:06:52.400Z,6.83
2018-01-04T07:08:02.379Z,6.9
2018-01-04T07:09:12.102Z,6.83
2018-01-04T07:10:22.094Z,6.85
2018-01-04T07:11:32.188Z,6.83
2018-01-04T07:12:42.206Z,6.89
2018-01-04T07:13:52.203Z,6.89
2018-01-04T07:15:02.246Z,6.85
2018-01-04T07:16:11.813Z,6.9
2018-01-04T07:17:21.864Z,6.86
2018-01-04T07:18:31.912Z,6.9
2018-01-04T07:19:41.756Z,6.77
2018-01-04T07:20:51.622Z,6.9
2018-01-04T07:22:01.255Z,6.86
2018-01-04T07:23:11.339Z,6.95
2018-01-04T07:24:21.406Z,6.9
2018-01-04T07:25:31.403Z,6.92
2018-01-04T07:26:41.466Z,6.95
2018-01-04T07:27:51.476Z,6.87
2018-01-04T07:29:01.219Z,6.9
2018-01-04T07:30:11.314Z,6.85
2018-01-04T07:31:20.878Z,6.85
2018-01-04T07:32:30.630Z,6.8
2018-01-04T07:33:40.400Z,6.86
2018-01-04T07:34:50.393Z,6.77
2018-01-04T07:36:01.123Z,6.74
2018-01-04T07:37:11.112Z,6.72
2018-01-04T07:38:21.112Z,6.71
2018-01-04T07:39:30.775Z,6.7
2018-01-04T07:40:44.883Z,6.7
2018-01-04T07:41:54.894Z,6.7
2018-01-04T07:43:04.865Z,6.72
2018-01-04T07:44:14.861Z,6.67
2018-01-04T07:45:24.864Z,6.71
2018-01-04T07:46:34.592Z,6.67
2018-01-04T07:47:44.598Z,6.65
2018-01-04T07:48:54.630Z,6.72
2018-01-04T07:50:04.629Z,6.74
2018-01-04T07:51:14.634Z,6.67
2018-01-04T07:52:24.373Z,6.7
2018-01-04T07:53:34.384Z,6.7
2018-01-04T07:54:43.876Z,6.67
2018-01-04T07:55:53.864Z,6.72
2018-01-04T07:57:03.872Z,6.72
2018-01-04T07:58:13.877Z,6.65
2018-01-04T07:59:23.875Z,6.7
2018-01-04T08:00:33.880Z,6.71
2018-01-04T08:01:43.611Z,6.67
2018-01-04T08:02:53.375Z,6.74
2018-01-04T08:04:03.129Z,6.68
2018-01-04T08:05:12.908Z,6.74
2018-01-04T08:06:22.648Z,6.75
2018-01-04T08:07:32.678Z,6.7
2018-01-04T08:08:42.707Z,6.67
2018-01-04T08:09:52.495Z,6.7
2018-01-04T08:11:02.551Z,6.71
2018-01-04T08:12:12.538Z,6.77
2018-01-04T08:13:22.543Z,6.7
2018-01-04T08:14:32.530Z,6.7
2018-01-04T08:15:42.532Z,6.71
2018-01-04T08:16:52.286Z,6.71
2018-01-04T08:18:02.058Z,6.72
2018-01-04T08:19:12.072Z,6.72
2018-01-04T08:20:22.056Z,6.65
2018-01-04T08:21:32.052Z,6.71
2018-01-04T08:22:41.872Z,6.71
2018-01-04T08:23:51.883Z,6.75
2018-01-04T08:25:01.933Z,6.72
2018-01-04T08:26:11.918Z,6.71
2018-01-04T08:27:21.677Z,6.75
2018-01-04T08:28:31.677Z,6.83
2018-01-04T08:29:41.150Z,6.77
2018-01-04T08:30:50.879Z,6.8
2018-01-04T08:32:00.878Z,6.77
2018-01-04T08:33:10.351Z,6.77
2018-01-04T08:34:20.415Z,6.87
2018-01-04T08:35:30.433Z,6.85
2018-01-04T08:36:40.482Z,6.9
2018-01-04T08:37:50.207Z,6.82
2018-01-04T08:38:59.909Z,6.87
2018-01-04T08:40:09.675Z,6.83
2018-01-04T08:41:19.653Z,6.85
2018-01-04T08:42:29.393Z,6.87
2018-01-04T08:43:39.388Z,6.85
2018-01-04T08:44:49.107Z,6.77
2018-01-04T08:45:58.806Z,6.86
2018-01-04T08:47:08.524Z,6.82
2018-01-04T08:48:18.517Z,6.85
2018-01-04T08:49:28.236Z,6.77
2018-01-04T08:50:38.251Z,6.75
2018-01-04T08:51:47.984Z,6.71
2018-01-04T08:52:58.001Z,6.67
2018-01-04T08:54:08.038Z,6.7
2018-01-04T08:55:18.048Z,6.74
2018-01-04T08:56:28.010Z,6.75
2018-01-04T08:57:37.744Z,6.67
2018-01-04T08:58:47.500Z,6.74
2018-01-04T08:59:57.236Z,6.71
2018-01-04T09:01:07.215Z,6.72
2018-01-04T09:02:16.968Z,6.68
2018-01-04T09:03:26.957Z,6.7
2018-01-04T09:04:36.934Z,6.68
2018-01-04T09:05:46.421Z,6.7
2018-01-04T09:06:56.144Z,6.78
2018-01-04T09:08:05.828Z,6.77
2018-01-04T09:09:15.815Z,6.87
2018-01-04T09:10:25.800Z,6.86
2018-01-04T09:11:35.808Z,6.82
2018-01-04T09:12:45.512Z,6.86
2018-01-04T09:13:55.482Z,6.95
2018-01-04T09:15:05.240Z,6.95
2018-01-04T09:16:15.275Z,6.96
2018-01-04T09:17:25.243Z,7.05
2018-01-04T09:18:35.331Z,7.03
2018-01-04T09:19:45.068Z,7.04
2018-01-04T09:20:55.042Z,7.18
2018-01-04T09:22:05.031Z,7.13
2018-01-04T09:23:14.485Z,7.25
2018-01-04T09:24:24.467Z,7.21
2018-01-04T09:25:33.917Z,7.18
2018-01-04T09:26:43.141Z,7.15
2018-01-04T09:27:52.613Z,7.15
2018-01-04T09:29:02.388Z,7.21
2018-01-04T09:30:12.114Z,7.31
2018-01-04T09:31:22.165Z,7.22
2018-01-04T09:32:31.954Z,7.32
2018-01-04T09:33:41.964Z,7.33
2018-01-04T09:34:51.883Z,7.25
2018-01-04T09:36:01.696Z,7.29
2018-01-04T09:37:11.813Z,7.31
2018-01-04T09:38:22.120Z,7.36
2018-01-04T09:39:32.712Z,7.36
2018-01-04T09:40:42.670Z,7.33
2018-01-04T09:41:52.536Z,7.29
2018-01-04T09:43:02.402Z,7.36
2018-01-04T09:44:12.213Z,7.36
2018-01-04T09:45:21.918Z,7.37
2018-01-04T09:46:31.689Z,7.39
2018-01-04T09:47:46.648Z,7.37
2018-01-04T09:48:58.357Z,7.37
2018-01-04T09:50:09.921Z,7.32
2018-01-04T09:51:20.876Z,7.36
2018-01-04T09:52:32.319Z,7.32
2018-01-04T09:53:42.278Z,7.32
2018-01-04T09:54:51.975Z,7.36
2018-01-04T09:56:02.001Z,7.39
2018-01-04T09:57:11.714Z,7.43
2018-01-04T09:58:21.668Z,7.43
2018-01-04T09:59:31.373Z,7.44
2018-01-04T10:00:41.331Z,7.44
2018-01-04T10:01:51.293Z,7.48
2018-01-04T10:03:02.374Z,7.53
2018-01-04T10:04:15.065Z,7.47
2018-01-04T10:06:08.224Z,7.55
2018-01-04T10:07:18.431Z,7.64
2018-01-04T10:08:28.164Z,7.62
2018-01-04T10:09:38.192Z,7.61
2018-01-04T10:10:48.141Z,7.61
2018-01-04T10:11:58.255Z,7.62
2018-01-04T10:13:07.779Z,7.61
2018-01-04T10:14:17.484Z,7.61
2018-01-04T10:15:27.182Z,7.61
2018-01-04T10:16:36.884Z,7.64
2018-01-04T10:17:46.885Z,7.66
2018-01-04T10:18:56.876Z,7.64
2018-01-04T10:20:06.889Z,7.66
2018-01-04T10:21:16.602Z,7.66
2018-01-04T10:22:26.595Z,7.59
2018-01-04T10:23:36.332Z,7.62
2018-01-04T10:24:46.285Z,7.53
2018-01-04T10:25:56.254Z,7.5
2018-01-04T10:27:05.974Z,7.5
2018-01-04T10:28:15.746Z,7.33
2018-01-04T10:29:25.464Z,7.37
2018-01-04T10:30:35.437Z,7.36
2018-01-04T10:31:45.409Z,7.4
2018-01-04T10:32:54.872Z,7.36
2018-01-04T10:34:04.605Z,7.37
2018-01-04T10:35:14.598Z,7.28
2018-01-04T10:36:24.621Z,7.37
2018-01-04T10:37:34.361Z,7.31
2018-01-04T10:38:44.079Z,7.39
2018-01-04T10:39:54.078Z,7.44
2018-01-04T10:41:04.049Z,7.48
2018-01-04T10:42:13.778Z,7.51
2018-01-04T10:43:23.805Z,7.43
2018-01-04T10:44:33.511Z,7.51
2018-01-04T10:45:43.217Z,7.55
2018-01-04T10:46:53.231Z,7.56
2018-01-04T10:48:03.233Z,7.51
2018-01-04T10:49:13.217Z,7.51
2018-01-04T10:50:22.924Z,7.56
2018-01-04T10:51:32.636Z,7.53
2018-01-04T10:52:42.353Z,7.59
2018-01-04T10:53:52.339Z,7.59
2018-01-04T10:55:02.319Z,7.62
2018-01-04T10:56:12.015Z,7.64
2018-01-04T10:57:22.003Z,7.59
2018-01-04T10:58:31.725Z,7.64
2018-01-04T10:59:41.688Z,7.66
2018-01-04T11:00:51.678Z,7.72
2018-01-04T11:02:01.652Z,7.66
2018-01-04T11:03:11.832Z,7.62
2018-01-04T11:04:21.815Z,7.59
2018-01-04T11:05:31.329Z,7.7
2018-01-04T11:06:41.043Z,7.64
2018-01-04T11:07:50.998Z,7.72
2018-01-04T11:09:00.717Z,7.72
2018-01-04T11:10:10.423Z,7.7
2018-01-04T11:11:20.378Z,7.7
2018-01-04T11:12:30.339Z,7.7
2018-01-04T11:13:40.044Z,7.7
2018-01-04T11:14:49.739Z,7.78
2018-01-04T11:15:59.439Z,7.8
2018-01-04T11:17:09.157Z,7.75
2018-01-04T11:18:18.855Z,7.78
2018-01-04T11:19:28.810Z,7.9
2018-01-04T11:20:38.502Z,7.78
2018-01-04T11:21:48.200Z,7.7
2018-01-04T11:22:57.642Z,7.84
2018-01-04T11:24:07.603Z,7.84
2018-01-04T11:25:17.568Z,7.85
2018-01-04T11:26:27.532Z,7.72
2018-01-04T11:27:37.493Z,7.72
2018-01-04T11:28:47.486Z,7.81
2018-01-04T11:29:57.451Z,7.81
2018-01-04T11:31:06.890Z,7.66
2018-01-04T11:32:17.082Z,7.78
2018-01-04T11:33:27.070Z,7.78
2018-01-04T11:34:36.780Z,7.81
2018-01-04T11:35:46.233Z,7.81
2018-01-04T11:36:56.203Z,7.69
2018-01-04T11:38:06.153Z,7.8
2018-01-04T11:39:16.111Z,7.69
2018-01-04T11:40:26.118Z,7.78
2018-01-04T11:41:36.048Z,7.75
2018-01-04T11:42:45.993Z,7.72
2018-01-04T11:43:55.970Z,7.78
2018-01-04T11:45:06.154Z,7.75
2018-01-04T11:46:16.118Z,7.77
2018-01-04T11:47:25.845Z,7.77
2018-01-04T11:48:35.557Z,7.77
2018-01-04T11:49:45.282Z,7.74
2018-01-04T11:50:55.021Z,7.8
2018-01-04T11:52:04.463Z,7.7
2018-01-04T11:53:14.201Z,7.74
2018-01-04T11:54:24.271Z,7.75
2018-01-04T11:55:34.267Z,7.77
2018-01-04T11:56:44.108Z,7.78
2018-01-04T11:57:54.092Z,7.83
2018-01-04T11:59:04.084Z,7.83
2018-01-04T12:00:13.836Z,7.83
2018-01-04T12:01:23.607Z,7.81
2018-01-04T12:02:33.559Z,7.75
2018-01-04T12:03:43.381Z,7.8
2018-01-04T12:04:53.351Z,7.8
2018-01-04T12:06:03.629Z,7.67
2018-01-04T12:07:13.337Z,7.72
2018-01-04T12:08:23.347Z,7.83
2018-01-04T12:09:33.439Z,7.81
2018-01-04T12:10:43.462Z,7.74
2018-01-04T12:11:53.459Z,7.8
2018-01-04T12:13:03.444Z,7.75
2018-01-04T12:14:12.910Z,7.8
2018-01-04T12:15:22.616Z,7.75
2018-01-04T12:16:32.599Z,7.78
2018-01-04T12:17:42.644Z,7.69
2018-01-04T12:18:52.711Z,7.85
2018-01-04T12:20:02.448Z,7.83
2018-01-04T12:21:12.447Z,7.87
2018-01-04T12:22:22.449Z,7.88
2018-01-04T12:23:32.180Z,7.78
2018-01-04T12:24:41.894Z,7.78
2018-01-04T12:25:51.636Z,7.77
2018-01-04T12:27:01.329Z,7.75
2018-01-04T12:28:11.334Z,7.84
2018-01-04T12:29:21.321Z,7.8
2018-01-04T12:30:31.033Z,7.85
2018-01-04T12:31:40.641Z,7.8
2018-01-04T12:32:50.373Z,7.85
2018-01-04T12:34:00.374Z,7.88
2018-01-04T12:35:10.350Z,7.9
2018-01-04T12:36:20.323Z,7.85
2018-01-04T12:37:30.055Z,7.78
2018-01-04T12:38:40.035Z,7.77
2018-01-04T12:39:49.504Z,7.88
2018-01-04T12:40:59.482Z,7.8
2018-01-04T12:42:08.945Z,7.81
2018-01-04T12:43:18.912Z,7.74
2018-01-04T12:44:28.906Z,7.78
2018-01-04T12:45:38.882Z,7.77
2018-01-04T12:46:48.860Z,7.75
2018-01-04T12:47:58.829Z,7.78
2018-01-04T12:49:08.804Z,7.81
2018-01-04T12:50:18.860Z,7.67
2018-01-04T12:51:28.861Z,7.85
2018-01-04T12:52:38.868Z,7.74
2018-01-04T12:53:48.842Z,7.75
2018-01-04T12:54:58.804Z,7.75
2018-01-04T12:56:08.794Z,7.74
2018-01-04T12:57:18.567Z,7.75
2018-01-04T12:58:28.547Z,7.66
2018-01-04T12:59:38.501Z,7.62
2018-01-04T13:00:48.211Z,7.64
2018-01-04T13:01:57.914Z,7.72
2018-01-04T13:03:07.635Z,7.59
2018-01-04T13:04:17.336Z,7.64
2018-01-04T13:05:27.300Z,7.62
2018-01-04T13:06:37.037Z,7.61
2018-01-04T13:07:46.852Z,7.59
2018-01-04T13:08:56.819Z,7.59
2018-01-04T13:10:06.799Z,7.58
2018-01-04T13:11:16.790Z,7.59
2018-01-04T13:12:26.783Z,7.61
2018-01-04T13:13:36.484Z,7.62
2018-01-04T13:14:46.403Z,7.58
2018-01-04T13:15:56.486Z,7.64
2018-01-04T13:17:06.459Z,7.56
2018-01-04T13:18:16.451Z,7.55
2018-01-04T13:19:26.424Z,7.58
2018-01-04T13:20:36.145Z,7.59
2018-01-04T13:21:45.878Z,7.53
2018-01-04T13:22:55.600Z,7.55
2018-01-04T13:24:05.311Z,7.58
2018-01-04T13:25:15.292Z,7.55
2018-01-04T13:26:25.336Z,7.56
2018-01-04T13:27:35.372Z,7.56
2018-01-04T13:28:45.088Z,7.55
2018-01-04T13:29:55.044Z,7.59
2018-01-04T13:31:05.014Z,7.51
2018-01-04T13:32:14.740Z,7.48
2018-01-04T13:33:24.733Z,7.59
2018-01-04T13:34:34.784Z,7.55
2018-01-04T13:35:44.787Z,7.61
2018-01-04T13:36:54.831Z,7.59
2018-01-04T13:38:04.805Z,7.53
2018-01-04T13:39:14.790Z,7.61
2018-01-04T13:40:24.793Z,7.53
2018-01-04T13:41:34.505Z,7.62
2018-01-04T13:42:44.472Z,7.64
2018-01-04T13:43:54.435Z,7.58
2018-01-04T13:45:04.412Z,7.56
2018-01-04T13:46:14.376Z,7.59
2018-01-04T13:47:24.338Z,7.61
2018-01-04T13:48:34.303Z,7.58
2018-01-04T13:49:43.759Z,7.69
2018-01-04T13:50:53.714Z,7.66
2018-01-04T13:52:03.668Z,7.61
2018-01-04T13:53:13.641Z,7.62
2018-01-04T13:54:23.598Z,7.64
2018-01-04T13:55:33.560Z,7.58
2018-01-04T13:56:43.515Z,7.62
2018-01-04T13:57:53.476Z,7.7
2018-01-04T13:59:03.430Z,7.75
2018-01-04T14:00:13.441Z,7.75
2018-01-04T14:01:23.413Z,7.67
2018-01-04T14:02:33.374Z,7.7
2018-01-04T14:03:43.345Z,7.75
2018-01-04T14:04:53.309Z,7.69
2018-01-04T14:06:03.264Z,7.64
2018-01-04T14:07:12.960Z,7.67
2018-01-04T14:08:22.659Z,7.64
2018-01-04T14:09:32.630Z,7.61
2018-01-04T14:10:42.616Z,7.61
2018-01-04T14:11:52.564Z,7.53
2018-01-04T14:13:02.305Z,7.53
2018-01-04T14:14:12.266Z,7.59
2018-01-04T14:15:22.245Z,7.48
2018-01-04T14:16:31.945Z,7.53
2018-01-04T14:17:41.898Z,7.48
2018-01-04T14:18:51.867Z,7.47
2018-01-04T14:20:01.834Z,7.43
2018-01-04T14:21:11.788Z,7.5
2018-01-04T14:22:21.237Z,7.48
2018-01-04T14:23:30.933Z,7.39
2018-01-04T14:24:40.637Z,7.5
2018-01-04T14:25:50.597Z,7.37
2018-01-04T14:27:00.555Z,7.39
2018-01-04T14:28:10.254Z,7.47
2018-01-04T14:29:19.954Z,7.44
2018-01-04T14:30:29.936Z,7.41
2018-01-04T14:31:39.919Z,7.44
2018-01-04T14:32:49.904Z,7.39
2018-01-04T14:33:59.362Z,7.43
2018-01-04T14:35:09.346Z,7.46
2018-01-04T14:36:19.305Z,7.39
2018-01-04T14:37:28.750Z,7.37
2018-01-04T14:38:38.513Z,7.4
2018-01-04T14:39:48.468Z,7.36
2018-01-04T14:40:58.427Z,7.26
2018-01-04T14:42:08.387Z,7.32
2018-01-04T14:43:18.364Z,7.4
2018-01-04T14:44:28.343Z,7.36
2018-01-04T14:45:38.095Z,7.33
2018-01-04T14:46:47.541Z,7.37
2018-01-04T14:47:57.235Z,7.41
2018-01-04T14:49:06.923Z,7.41
2018-01-04T14:50:16.645Z,7.31
2018-01-04T14:51:26.340Z,7.37
2018-01-04T14:52:36.322Z,7.33
2018-01-04T14:53:46.298Z,7.41
2018-01-04T14:54:56.251Z,7.43
2018-01-04T14:56:06.211Z,7.41
2018-01-04T14:57:16.165Z,7.31
2018-01-04T14:58:25.863Z,7.41
2018-01-04T14:59:35.824Z,7.33
2018-01-04T15:00:45.803Z,7.41
2018-01-04T15:01:55.765Z,7.36
2018-01-04T15:03:05.735Z,7.39
2018-01-04T15:04:15.710Z,7.4
2018-01-04T15:05:25.416Z,7.36
2018-01-04T15:06:35.113Z,7.37
2018-01-04T15:07:45.143Z,7.36
2018-01-04T15:08:54.840Z,7.36
2018-01-04T15:10:04.814Z,7.32
2018-01-04T15:11:14.795Z,7.32
2018-01-04T15:12:24.950Z,7.36
2018-01-04T15:13:36.208Z,7.31
2018-01-04T15:14:47.375Z,7.32
2018-01-04T15:16:07.102Z,7.33
2018-01-04T15:17:16.961Z,7.28
2018-01-04T15:18:28.029Z,7.28
2018-01-04T15:19:39.445Z,7.26
2018-01-04T15:20:50.616Z,7.33
2018-01-04T15:22:02.041Z,7.23
2018-01-04T15:23:11.795Z,7.28
2018-01-04T15:24:21.781Z,7.31
2018-01-04T15:25:31.731Z,7.28
2018-01-04T15:26:41.782Z,7.37
2018-01-04T15:27:51.801Z,7.33
2018-01-04T15:29:01.767Z,7.28
2018-01-04T15:30:11.743Z,7.29
2018-01-04T15:31:21.717Z,7.33
2018-01-04T15:32:31.884Z,7.31
2018-01-04T15:33:41.932Z,7.22
2018-01-04T15:34:51.390Z,7.31
2018-01-04T15:36:00.845Z,7.21
2018-01-04T15:37:10.559Z,7.15
2018-01-04T15:38:20.523Z,7.03
2018-01-04T15:39:30.501Z,7.05
2018-01-04T15:40:40.511Z,7.03
2018-01-04T15:41:50.484Z,6.9
2018-01-04T15:43:00.206Z,6.89
2018-01-04T15:44:09.922Z,6.86
2018-01-04T15:45:19.638Z,6.85
2018-01-04T15:46:29.368Z,6.87
2018-01-04T15:47:39.344Z,6.89
2018-01-04T15:48:49.062Z,6.8
2018-01-04T15:49:59.041Z,6.77
2018-01-04T15:51:09.025Z,6.86
2018-01-04T15:52:18.531Z,6.78
2018-01-04T15:53:28.552Z,6.74
2018-01-04T15:54:38.034Z,6.75
2018-01-04T15:55:48.058Z,6.77
2018-01-04T15:56:57.270Z,6.74
2018-01-04T15:58:06.994Z,6.74
2018-01-04T15:59:16.795Z,6.67
2018-01-04T16:00:26.245Z,6.72
2018-01-04T16:01:35.457Z,6.65